createdAt,value
2018-11-22T12:17:56.010Z,61.60
2018-11-22T12:20:25.182Z,53.60
2018-11-22T12:22:55.956Z,50.80
2018-11-22T12:25:26.231Z,48.10
2018-11-22T12:27:57.124Z,44.30
2018-11-22T12:30:27.652Z,44.00
2018-11-22T12:33:01.456Z,44.40
2018-11-22T12:35:36.055Z,44.70
2018-11-22T12:38:10.627Z,41.90
2018-11-22T12:40:39.696Z,41.40
2018-11-22T12:43:08.776Z,41.90
2018-11-22T12:45:37.916Z,40.60
2018-11-22T12:48:07.019Z,39.50
2018-11-22T12:50:36.135Z,44.10
2018-11-22T12:53:06.104Z,51.00
2018-11-22T12:55:35.246Z,58.80
2018-11-22T12:58:04.532Z,64.50
2018-11-22T13:00:33.663Z,70.00
2018-11-22T13:03:02.747Z,78.50
2018-11-22T13:05:31.887Z,90.60
2018-11-22T13:08:00.971Z,95.80
2018-11-22T13:10:30.100Z,98.50
2018-11-22T13:12:59.184Z,99.90
2018-11-22T13:15:28.403Z,99.90
2018-11-22T13:17:57.494Z,99.90
2018-11-22T13:20:26.613Z,99.90
2018-11-22T13:22:55.743Z,99.90
2018-11-22T13:25:25.024Z,99.90
2018-11-22T13:27:54.091Z,99.90
2018-11-22T13:30:24.602Z,99.90
2018-11-22T13:32:54.463Z,99.90
2018-11-22T13:35:23.632Z,99.90
2018-11-22T13:37:54.007Z,99.90
2018-11-22T13:40:23.227Z,99.90
2018-11-22T13:42:53.015Z,99.90
2018-11-22T13:45:26.306Z,99.90
2018-11-22T13:47:56.626Z,99.90
2018-11-22T13:50:29.878Z,99.90
2018-11-22T13:53:07.302Z,99.90
2018-11-22T13:55:37.189Z,99.90
2018-11-22T13:58:07.847Z,99.90
2018-11-22T14:00:37.662Z,99.90
2018-11-22T14:03:08.639Z,99.90
2018-11-22T14:05:39.373Z,99.90
2018-11-22T14:08:10.099Z,99.90
2018-11-22T14:10:41.202Z,99.90
2018-11-22T14:13:11.295Z,99.90
2018-11-22T14:15:43.227Z,99.90
2018-11-22T14:18:13.977Z,99.90
2018-11-22T14:20:43.164Z,99.90
2018-11-22T14:23:12.820Z,99.90
2018-11-22T14:25:45.065Z,99.90
2018-11-22T14:28:11.722Z,99.90
2018-11-22T14:30:40.959Z,99.90
2018-11-22T14:33:10.576Z,99.90
2018-11-22T14:35:41.159Z,99.90
2018-11-22T14:38:12.675Z,99.90
2018-11-22T14:40:42.341Z,99.90
2018-11-22T14:43:11.799Z,99.90
2018-11-22T14:45:42.147Z,99.90
2018-11-22T14:48:11.802Z,99.90
2018-11-22T14:50:45.991Z,99.90
2018-11-22T14:53:17.986Z,99.90
2018-11-22T14:55:50.306Z,99.90
2018-11-22T14:58:19.534Z,99.90
2018-11-22T15:00:49.191Z,99.90
2018-11-22T15:03:18.324Z,99.90
2018-11-22T15:05:47.569Z,99.90
2018-11-22T15:08:16.741Z,99.90
2018-11-22T15:10:45.904Z,99.90
2018-11-22T15:13:15.117Z,99.90
2018-11-22T15:15:44.276Z,99.90
2018-11-22T15:18:13.424Z,99.90
2018-11-22T15:20:42.579Z,99.90
2018-11-22T15:23:11.701Z,99.90
2018-11-22T15:25:42.998Z,99.90
2018-11-22T15:28:12.187Z,99.90
2018-11-22T15:30:41.923Z,99.90
2018-11-22T15:33:11.512Z,99.90
2018-11-22T15:35:41.708Z,99.90
2018-11-22T15:38:10.907Z,99.90
2018-11-22T15:40:41.556Z,99.90
2018-11-22T15:43:10.727Z,99.90
2018-11-22T15:45:40.744Z,99.90
2018-11-22T15:48:09.903Z,99.90
2018-11-22T15:50:39.068Z,99.90
2018-11-22T15:53:08.205Z,99.90
2018-11-22T15:55:38.380Z,99.90
2018-11-22T15:58:07.706Z,99.90
2018-11-22T16:00:37.511Z,99.90
2018-11-22T16:03:06.677Z,99.90
2018-11-22T16:05:37.109Z,99.90
2018-11-22T16:08:06.967Z,99.90
2018-11-22T16:10:37.237Z,99.90
2018-11-22T16:13:08.735Z,99.90
2018-11-22T16:15:41.937Z,99.90
2018-11-22T16:18:11.279Z,99.90
2018-11-22T16:20:40.436Z,99.90
2018-11-22T16:23:09.774Z,99.90
2018-11-22T16:25:39.745Z,99.90
2018-11-22T16:28:08.779Z,99.90
2018-11-22T16:30:38.599Z,99.90
2018-11-22T16:33:07.803Z,99.90
2018-11-22T16:35:37.304Z,99.90
2018-11-22T16:38:06.915Z,99.90
2018-11-22T16:40:36.021Z,99.90
2018-11-22T16:43:05.373Z,99.90
2018-11-22T16:45:35.970Z,99.90
2018-11-22T16:48:06.865Z,99.90
2018-11-22T16:50:37.240Z,99.90
2018-11-22T16:53:06.419Z,99.90
2018-11-22T16:55:35.536Z,99.90
2018-11-22T16:58:04.991Z,99.90
2018-11-22T17:00:37.298Z,99.90
2018-11-22T17:03:08.409Z,99.90
2018-11-22T17:05:37.929Z,99.90
2018-11-22T17:08:07.954Z,99.90
2018-11-22T17:10:37.434Z,99.90
2018-11-22T17:13:07.043Z,99.90
2018-11-22T17:15:37.885Z,99.90
2018-11-22T17:18:08.295Z,99.90
2018-11-22T17:20:37.594Z,99.90
2018-11-22T17:23:07.293Z,99.90
2018-11-22T17:25:37.219Z,99.90
2018-11-22T17:28:07.799Z,99.90
2018-11-22T17:30:41.316Z,99.90
2018-11-22T17:33:10.653Z,99.90
2018-11-22T17:35:40.519Z,99.90
2018-11-22T17:38:10.585Z,99.90
2018-11-22T17:40:43.350Z,99.90
2018-11-22T17:43:12.537Z,99.90
2018-11-22T17:45:43.639Z,99.90
2018-11-22T17:48:12.787Z,99.90
2018-11-22T17:50:43.484Z,99.90
2018-11-22T17:53:13.364Z,99.90
2018-11-22T17:55:42.556Z,99.90
2018-11-22T17:58:12.187Z,99.90
2018-11-22T18:00:48.037Z,99.90
2018-11-22T18:03:17.177Z,99.90
2018-11-22T18:05:46.412Z,99.90
2018-11-22T18:08:15.633Z,99.90
2018-11-22T18:10:45.128Z,99.90
2018-11-22T18:13:14.304Z,99.90
2018-11-22T18:15:49.123Z,99.90
2018-11-22T18:18:18.325Z,99.90
2018-11-22T18:20:47.484Z,99.90
2018-11-22T18:23:16.654Z,99.90
2018-11-22T18:25:48.869Z,99.90
2018-11-22T18:28:15.075Z,99.90
2018-11-22T18:30:44.230Z,99.90
2018-11-22T18:33:13.401Z,99.90
2018-11-22T18:35:42.796Z,99.90
2018-11-22T18:38:12.607Z,99.90
2018-11-22T18:40:42.860Z,99.90
2018-11-22T18:43:12.039Z,99.90
2018-11-22T18:45:42.488Z,99.90
2018-11-22T18:48:13.372Z,99.90
2018-11-22T18:50:43.036Z,99.90
2018-11-22T18:53:12.646Z,99.90
2018-11-22T18:55:41.775Z,99.90
2018-11-22T18:58:11.004Z,99.90
2018-11-22T19:00:41.667Z,99.90
2018-11-22T19:03:12.487Z,99.90
2018-11-22T19:05:41.700Z,99.90
2018-11-22T19:08:10.899Z,99.90
2018-11-22T19:10:41.312Z,99.90
2018-11-22T19:13:11.143Z,99.90
2018-11-22T19:15:43.787Z,99.90
2018-11-22T19:18:13.531Z,99.90
2018-11-22T19:20:44.439Z,99.90
2018-11-22T19:23:14.880Z,99.90
2018-11-22T19:25:45.696Z,99.90
2018-11-22T19:28:14.860Z,99.90
2018-11-22T19:30:45.453Z,99.90
2018-11-22T19:33:16.715Z,99.90
2018-11-22T19:35:47.430Z,99.90
2018-11-22T19:38:16.559Z,99.90
2018-11-22T19:40:45.683Z,99.90
2018-11-22T19:43:15.399Z,99.90
2018-11-22T19:45:46.191Z,99.90
2018-11-22T19:48:15.352Z,99.90
2018-11-22T19:50:44.480Z,99.90
2018-11-22T19:53:14.695Z,99.90
2018-11-22T19:55:44.907Z,99.90
2018-11-22T19:58:15.335Z,99.90
2018-11-22T20:00:44.508Z,99.90
2018-11-22T20:03:13.625Z,99.90
2018-11-22T20:05:43.337Z,99.90
2018-11-22T20:08:14.303Z,99.90
2018-11-22T20:10:44.487Z,99.90
2018-11-22T20:13:13.604Z,99.90
2018-11-22T20:15:42.687Z,99.90
2018-11-22T20:18:12.232Z,99.90
2018-11-22T20:20:41.400Z,99.90
2018-11-22T20:23:10.523Z,99.90
2018-11-22T20:25:39.615Z,99.90
2018-11-22T20:28:08.742Z,99.90
2018-11-22T20:30:40.447Z,99.90
2018-11-22T20:33:09.583Z,99.90
2018-11-22T20:35:39.024Z,99.90
2018-11-22T20:38:08.472Z,99.90
2018-11-22T20:40:37.573Z,99.90
2018-11-22T20:43:06.692Z,99.90
2018-11-22T20:45:40.807Z,99.90
2018-11-22T20:48:07.095Z,99.90
2018-11-22T20:50:36.559Z,99.90
2018-11-22T20:53:06.374Z,99.90
2018-11-22T20:55:36.802Z,99.90
2018-11-22T20:58:06.577Z,99.90
2018-11-22T21:00:37.261Z,99.90
2018-11-22T21:03:06.542Z,99.90
2018-11-22T21:05:35.640Z,99.90
2018-11-22T21:08:04.820Z,99.90
2018-11-22T21:10:34.343Z,99.90
2018-11-22T21:13:04.331Z,99.90
2018-11-22T21:15:34.196Z,99.90
2018-11-22T21:18:05.021Z,99.90
2018-11-22T21:20:35.754Z,99.90
2018-11-22T21:23:05.251Z,99.90
2018-11-22T21:25:34.460Z,99.90
2018-11-22T21:28:03.591Z,99.90
2018-11-22T21:30:34.073Z,99.90
2018-11-22T21:33:03.533Z,99.90
2018-11-22T21:35:33.098Z,99.90
2018-11-22T21:38:03.128Z,99.90
2018-11-22T21:40:33.097Z,99.90
2018-11-22T21:43:02.411Z,99.90
2018-11-22T21:45:32.947Z,99.90
2018-11-22T21:48:02.112Z,99.90
2018-11-22T21:50:31.250Z,99.90
2018-11-22T21:53:00.436Z,99.90
2018-11-22T21:55:30.794Z,99.90
2018-11-22T21:58:01.072Z,99.90
2018-11-22T22:00:37.337Z,99.90
2018-11-22T22:03:08.126Z,99.90
2018-11-22T22:05:37.685Z,99.90
2018-11-22T22:08:07.931Z,99.90
2018-11-22T22:10:37.053Z,99.90
2018-11-22T22:13:06.358Z,99.90
2018-11-22T22:15:36.830Z,99.90
2018-11-22T22:18:07.550Z,99.90
2018-11-22T22:20:37.080Z,99.90
2018-11-22T22:23:07.150Z,99.90
2018-11-22T22:25:35.623Z,99.90
2018-11-22T22:28:04.856Z,99.90
2018-11-22T22:30:34.832Z,99.90
2018-11-22T22:33:05.447Z,99.90
2018-11-22T22:35:34.690Z,99.90
2018-11-22T22:38:03.848Z,99.90
2018-11-22T22:40:33.633Z,99.90
2018-11-22T22:43:02.930Z,99.90
2018-11-22T22:45:32.816Z,99.90
2018-11-22T22:48:02.011Z,99.90
2018-11-22T22:50:31.772Z,99.90
2018-11-22T22:53:01.471Z,99.90
2018-11-22T22:55:31.191Z,99.90
2018-11-22T22:58:00.348Z,99.90
2018-11-22T23:00:34.948Z,99.90
2018-11-22T23:03:06.148Z,99.90
2018-11-22T23:05:35.879Z,99.90
2018-11-22T23:08:05.053Z,99.90
2018-11-22T23:10:34.191Z,99.90
2018-11-22T23:13:03.398Z,99.90
2018-11-22T23:15:32.868Z,99.90
2018-11-22T23:18:02.180Z,99.90
2018-11-22T23:20:33.613Z,99.90
2018-11-22T23:23:02.780Z,99.90
2018-11-22T23:25:31.941Z,99.90
2018-11-22T23:28:01.097Z,99.90
2018-11-22T23:30:31.561Z,99.90
2018-11-22T23:33:02.843Z,99.90
2018-11-22T23:35:32.032Z,99.90
2018-11-22T23:38:01.150Z,99.90
2018-11-22T23:40:31.530Z,99.90
2018-11-22T23:43:00.620Z,99.90
2018-11-22T23:45:30.826Z,99.90
2018-11-22T23:47:59.935Z,99.90
2018-11-22T23:50:30.435Z,99.90
2018-11-22T23:53:00.855Z,99.90
2018-11-22T23:55:29.939Z,99.90
2018-11-22T23:57:59.037Z,99.90
